Salem, IN

7:21 AM EDT on August 27, 2014 (GMT -0400)
Louisville International-Standiford | Change Station
CLOSE
Current Station
Airport
Location: Louisville,
Elevation: 489 ft
Nearby Weather Stations

Elev 489 ft 38.17 °N, 85.74 °W | Updated 25 minutes ago

Scattered Clouds
Scattered Clouds
75 °F
Feels Like 75 °F
N
4
Wind Variable Wind from SE

Today
High -- | Low -- °F
--% Chance of Precip.
Yesterday
High -- | Low -- °F
Precip. -- in
7:09 AM 8:21 PM
Waxing Crescent, 3% visible
Pressure 30.07 in
Visibility 9.0 miles
Clouds Few 20000 ft
Scattered Clouds 30000 ft
Dew Point 71 °F
Humidity 87%
Rainfall 0.00 in
Snow Depth Not available.
UV 0 out of 12
Pollen 10.70 out of 12
Ozone Good
PM2.5 Moderate
Flu Activity Not available.
METAR KSDF 271056Z 14003KT 9SM FEW200 SCT300 24/22 A3009 RMK AO2 SLP183 T02390217

More Conditions Fewer Conditions

Pressure 30.07 in
Visibility 9.0 miles
Clouds Few 20000 ft
Scattered Clouds 30000 ft
Dew Point 71 °F
Humidity 87%
Rainfall 0.00 in
Snow Depth Not available.
UV 0 out of 12
Pollen 10.70 out of 12
Ozone Good
PM2.5 Moderate
Flu Activity Not available.
METAR KSDF 271056Z 14003KT 9SM FEW200 SCT300 24/22 A3009 RMK AO2 SLP183 T02390217

More Conditions Fewer Conditions

10-Day Weather Forecast

Almanac

Astronomy

Aug. 27, 2014 Rise Set
Actual Time 7:09 AM EDT 8:21 PM EDT
Civil Twilight 6:41 AM EDT 8:49 PM EDT
Nautical Twilight 6:08 AM EDT 9:22 PM EDT
Astronomical Twilight 5:34 AM EDT 9:56 PM EDT
Moon 9:02 AM EDT 9:15 PM EDT
Length of Visible Light 14h 07m
Length of Day
13h 12m
Tomorrow will be 2m 21s shorter.
Waxing Crescent, 3% of the Moon is Illuminated
Today
Waxing Crescent
Sep 2
First Quarter
Sep 8
Full
Sep 15
Last Quarter
Sep 24
New

Today's Extremes

State Highs State Lows

Community

WunderPhotos

Upload Photos

1,747,667 photos uploaded!

Nearby

Air Quality

  Air Quality AQ Index Pollutant
Yesterday Moderate
OZONE
Yesterday Good
PM10
Current Moderate
PM2.5
Current Good
OZONE
Wednesday Moderate
PM2.5
Wednesday Good
OZONE
Thursday Moderate
PM2.5
Thursday Good
OZONE
Friday Moderate
PM2.5
Friday Moderate
OZONE

Snow Depth

Station Depth Elevation
No new snow has been reported.

Earthquake Activity

City Distance Mag. Time & Date
No recent earthquake activity has been reported nearby.
Minimum magnitude displayed is 2.5.

Coastal Water Temperatures

Place Temperature
No Stations Reporting

Nearby Weather Stations